Time;durP1;ratioP1;P1;durP2;ratioP2;P2;SDS_P1;SDS_P2;PMS_P1;PMS_P2;Temp;Humidity;BMP_temperature;BMP_pressure;BME280_temperature;BME280_humidity;BME280_pressure;Samples;Min_cycle;Max_cycle;Signal;HPM_P1;HPM_P2
2024/02/01 00:00:03;;;;;;;16.05;10.75;;;;;;;-2.26;100.00;98898.97;1224236;75;2921703;-65
2024/02/01 00:02:36;;;;;;;13.80;9.45;;;;;;;-2.36;100.00;98900.34;1225495;75;2920049;-67
2024/02/01 00:05:10;;;;;;;13.90;9.60;;;;;;;-2.37;100.00;98894.19;1225889;75;2915047;-66
2024/02/01 00:07:43;;;;;;;12.60;9.15;;;;;;;-2.30;100.00;98898.16;1225642;75;2915110;-65
2024/02/01 00:10:17;;;;;;;13.45;9.35;;;;;;;-2.25;100.00;98889.78;1225420;75;2916590;-67
2024/02/01 00:12:52;;;;;;;12.60;8.45;;;;;;;-2.40;100.00;98894.94;1225570;75;2948555;-65
2024/02/01 00:15:25;;;;;;;12.10;8.85;;;;;;;-2.40;100.00;98892.25;1225313;75;2920558;-64
2024/02/01 00:17:58;;;;;;;12.40;8.40;;;;;;;-2.31;100.00;98885.84;1225072;75;2915520;-66
2024/02/01 00:20:30;;;;;;;10.55;7.35;;;;;;;-2.38;100.00;98892.66;1225510;75;2919029;-64
2024/02/01 00:23:03;;;;;;;8.80;6.60;;;;;;;-2.42;100.00;98888.38;1225989;75;2922254;-66
2024/02/01 00:25:36;;;;;;;8.70;6.30;;;;;;;-2.47;100.00;98884.09;1225405;75;2920049;-63
2024/02/01 00:28:12;;;;;;;10.75;6.45;;;;;;;-2.41;100.00;98887.22;1226493;75;2845204;-65
2024/02/01 00:30:44;;;;;;;9.25;6.55;;;;;;;-2.46;100.00;98884.84;1225775;75;2924643;-65
2024/02/01 00:33:17;;;;;;;9.75;6.70;;;;;;;-2.60;100.00;98885.38;1225327;75;2914837;-64
2024/02/01 00:35:50;;;;;;;9.00;6.45;;;;;;;-2.54;100.00;98877.84;1224702;75;2942483;-65
2024/02/01 00:38:23;;;;;;;11.25;6.95;;;;;;;-2.62;100.00;98875.03;1224444;75;2924074;-65
2024/02/01 00:40:55;;;;;;;10.95;7.10;;;;;;;-2.59;100.00;98879.69;1225078;75;2921072;-66
2024/02/01 00:43:31;;;;;;;13.30;8.50;;;;;;;-2.89;100.00;98874.16;1225437;75;2918661;-66
2024/02/01 00:46:04;;;;;;;13.45;9.00;;;;;;;-2.68;100.00;98876.44;1225172;75;2921555;-66
2024/02/01 00:48:37;;;;;;;13.80;8.35;;;;;;;-2.67;100.00;98866.50;1224975;75;2919606;-66
2024/02/01 00:51:11;;;;;;;11.95;8.70;;;;;;;-2.69;100.00;98863.44;1226030;75;2922072;-65
2024/02/01 00:53:45;;;;;;;13.80;8.60;;;;;;;-2.60;100.00;98863.94;1225441;75;2919990;-66
2024/02/01 00:56:18;;;;;;;11.90;8.10;;;;;;;-2.59;100.00;98854.78;1225421;75;2927356;-67
2024/02/01 00:58:53;;;;;;;9.00;6.50;;;;;;;-2.60;100.00;98858.56;1225197;75;2922375;-66
2024/02/01 01:01:26;;;;;;;9.10;6.50;;;;;;;-2.68;100.00;98856.91;1224536;75;2922501;-64
2024/02/01 01:03:59;;;;;;;8.15;5.90;;;;;;;-2.69;100.00;98852.69;1225913;75;2914247;-65
2024/02/01 01:06:32;;;;;;;9.45;5.70;;;;;;;-2.70;100.00;98859.19;1224932;75;2925785;-64
2024/02/01 01:09:05;;;;;;;8.40;5.90;;;;;;;-2.67;100.00;98853.09;1225416;75;2922767;-66
2024/02/01 01:11:38;;;;;;;10.30;6.80;;;;;;;-2.72;100.00;98850.72;1225645;75;2923842;-65
2024/02/01 01:14:14;;;;;;;8.65;5.80;;;;;;;-2.71;100.00;98844.25;1225290;75;2921077;-65
2024/02/01 01:16:46;;;;;;;7.45;5.75;;;;;;;-2.83;100.00;98829.88;1225147;75;2919414;-67
2024/02/01 01:19:19;;;;;;;8.45;5.65;;;;;;;-2.78;100.00;98832.25;1225103;75;2917565;-65
2024/02/01 01:21:52;;;;;;;8.90;5.75;;;;;;;-2.89;100.00;98827.84;1224936;75;2917982;-66
2024/02/01 01:24:25;;;;;;;9.25;6.55;;;;;;;-2.98;100.00;98824.63;1224612;75;2918706;-66
2024/02/01 01:26:58;;;;;;;11.50;7.55;;;;;;;-3.04;100.00;98821.47;1225250;75;2915655;-65
2024/02/01 01:29:33;;;;;;;11.05;7.75;;;;;;;-3.07;100.00;98820.28;1225018;75;2915677;-65
2024/02/01 01:32:06;;;;;;;9.65;7.00;;;;;;;-3.02;100.00;98808.50;1224950;75;2921678;-66
2024/02/01 01:34:39;;;;;;;10.75;7.50;;;;;;;-3.10;100.00;98809.47;1225427;75;2914222;-65
2024/02/01 01:37:12;;;;;;;15.55;9.00;;;;;;;-3.21;100.00;98803.94;1225185;75;2917980;-65
2024/02/01 01:39:45;;;;;;;13.10;8.80;;;;;;;-3.07;100.00;98806.88;1224779;75;2921409;-63
2024/02/01 01:42:18;;;;;;;14.90;8.85;;;;;;;-3.21;100.00;98798.59;1224945;75;2955830;-65
2024/02/01 01:44:53;;;;;;;10.65;7.80;;;;;;;-3.06;100.00;98795.03;1225136;75;2919392;-66
2024/02/01 01:47:34;;;;;;;11.90;8.35;;;;;;;-3.09;100.00;98795.75;1225680;75;2920091;-64
2024/02/01 01:50:08;;;;;;;10.90;7.55;;;;;;;-3.06;100.00;98794.25;1224340;75;2919808;-66
2024/02/01 01:52:46;;;;;;;10.95;7.70;;;;;;;-3.14;100.00;98787.25;1224810;75;2918951;-65
2024/02/01 01:55:19;;;;;;;13.10;8.35;;;;;;;-3.14;100.00;98779.97;1225447;75;2924791;-64
2024/02/01 01:57:54;;;;;;;15.15;8.75;;;;;;;-3.23;100.00;98777.53;1224651;75;2917548;-67
2024/02/01 02:00:29;;;;;;;12.40;8.50;;;;;;;-3.26;100.00;98780.16;1225158;75;2924743;-65
2024/02/01 02:03:02;;;;;;;12.35;8.90;;;;;;;-3.31;100.00;98783.88;1224467;75;2912206;-65
2024/02/01 02:05:35;;;;;;;12.30;8.15;;;;;;;-3.20;100.00;98789.41;1223803;75;2921011;-66
2024/02/01 02:08:09;;;;;;;11.45;7.15;;;;;;;-3.21;100.00;98783.28;1225698;75;2918239;-65
2024/02/01 02:10:43;;;;;;;12.25;8.05;;;;;;;-3.27;100.00;98779.38;1224064;75;2921778;-64
2024/02/01 02:13:15;;;;;;;12.10;7.90;;;;;;;-3.22;100.00;98770.28;1225309;75;2923315;-65
2024/02/01 02:15:51;;;;;;;11.55;7.90;;;;;;;-3.21;100.00;98771.81;1225771;75;2912544;-64
2024/02/01 02:18:24;;;;;;;11.85;7.70;;;;;;;-3.24;100.00;98770.63;1225233;75;2916631;-64
2024/02/01 02:21:00;;;;;;;11.35;7.70;;;;;;;-3.38;100.00;98766.91;1225733;75;2921069;-64
2024/02/01 02:23:35;;;;;;;11.25;7.60;;;;;;;-3.46;100.00;98766.78;1225253;75;2916540;-66
2024/02/01 02:26:08;;;;;;;8.95;6.75;;;;;;;-3.32;100.00;98765.50;1225264;75;2924692;-65
2024/02/01 02:28:42;;;;;;;14.45;8.05;;;;;;;-3.57;100.00;98760.47;1225647;75;2921244;-65
2024/02/01 02:31:15;;;;;;;12.10;7.70;;;;;;;-3.50;100.00;98760.59;1224752;75;2921327;-65
2024/02/01 02:33:47;;;;;;;12.75;7.35;;;;;;;-3.48;100.00;98765.59;1225462;75;2917537;-65
2024/02/01 02:36:20;;;;;;;12.50;7.80;;;;;;;-3.52;100.00;98751.38;1225279;75;2919051;-68
2024/02/01 02:38:56;;;;;;;11.50;8.35;;;;;;;-3.59;100.00;98746.66;1224996;75;2920372;-68
2024/02/01 02:41:28;;;;;;;15.20;9.90;;;;;;;-3.60;100.00;98749.69;1225821;75;2917335;-65
2024/02/01 02:44:02;;;;;;;12.05;8.30;;;;;;;-3.51;100.00;98747.56;1225245;75;2913937;-66
2024/02/01 02:46:35;;;;;;;12.60;8.75;;;;;;;-3.64;100.00;98741.59;1225587;75;2922710;-66
2024/02/01 02:49:09;;;;;;;10.00;7.40;;;;;;;-3.57;100.00;98739.03;1225971;75;2918386;-63
2024/02/01 02:51:42;;;;;;;9.20;7.15;;;;;;;-3.57;100.00;98736.38;1224990;75;2926058;-65
2024/02/01 02:54:18;;;;;;;8.55;6.55;;;;;;;-3.58;100.00;98739.38;1225925;75;2918411;-65
2024/02/01 02:56:51;;;;;;;10.05;7.40;;;;;;;-3.75;100.00;98736.06;1225559;75;2916166;-64
2024/02/01 02:59:24;;;;;;;11.35;8.15;;;;;;;-3.68;100.00;98720.13;1225298;75;2915036;-67
2024/02/01 03:01:56;;;;;;;14.05;8.30;;;;;;;-3.69;100.00;98720.47;1224935;75;2925589;-67
2024/02/01 03:04:29;;;;;;;12.55;7.35;;;;;;;-3.71;100.00;98717.38;1225139;75;2921821;-64
2024/02/01 03:07:02;;;;;;;11.45;6.90;;;;;;;-3.71;100.00;98718.13;1224359;75;2920972;-67
2024/02/01 03:09:39;;;;;;;8.45;6.30;;;;;;;-3.74;100.00;98712.75;1223354;75;2926705;-67
2024/02/01 03:12:12;;;;;;;11.55;7.40;;;;;;;-3.82;100.00;98721.75;1225340;75;2919595;-67
2024/02/01 03:14:48;;;;;;;9.95;7.25;;;;;;;-3.81;100.00;98720.63;1224788;75;2936720;-65
2024/02/01 03:17:21;;;;;;;11.60;6.80;;;;;;;-3.92;100.00;98712.38;1224496;75;2944764;-66
2024/02/01 03:19:54;;;;;;;10.80;7.15;;;;;;;-3.89;100.00;98701.00;1225013;75;2920056;-65
2024/02/01 03:22:27;;;;;;;12.20;7.80;;;;;;;-3.98;100.00;98700.44;1224886;75;2927787;-65
2024/02/01 03:25:03;;;;;;;10.75;7.60;;;;;;;-3.89;100.00;98696.41;1224985;75;2921161;-65
2024/02/01 03:27:36;;;;;;;11.45;7.70;;;;;;;-3.87;100.00;98704.88;1224982;75;2928516;-65
2024/02/01 03:30:11;;;;;;;8.95;6.15;;;;;;;-3.85;100.00;98707.16;1226232;75;2920695;-64
2024/02/01 03:32:45;;;;;;;12.70;8.40;;;;;;;-3.96;100.00;98706.97;1225175;75;2920336;-66
2024/02/01 03:35:18;;;;;;;12.55;8.25;;;;;;;-3.92;100.00;98715.06;1225511;75;2913379;-64
2024/02/01 03:37:51;;;;;;;10.60;7.85;;;;;;;-3.87;100.00;98709.44;1225311;75;2915688;-65
2024/02/01 03:40:27;;;;;;;9.55;7.60;;;;;;;-3.88;100.00;98703.31;1224394;75;2918975;-65
2024/02/01 03:42:59;;;;;;;13.75;8.70;;;;;;;-4.04;100.00;98713.31;1225775;75;2931526;-65
2024/02/01 03:45:32;;;;;;;13.70;9.65;;;;;;;-4.07;100.00;98700.63;1224289;75;2926551;-66
2024/02/01 03:48:05;;;;;;;12.85;8.80;;;;;;;-3.98;100.00;98703.88;1224544;75;2923574;-66
2024/02/01 03:50:41;;;;;;;12.20;7.95;;;;;;;-3.86;100.00;98695.69;1224425;75;2926959;-64
2024/02/01 03:53:14;;;;;;;11.40;8.30;;;;;;;-3.95;100.00;98679.09;1224114;75;2934198;-66
2024/02/01 03:55:50;;;;;;;11.05;7.65;;;;;;;-3.91;100.00;98681.84;1224326;75;2920552;-65
2024/02/01 03:58:23;;;;;;;10.60;7.85;;;;;;;-4.00;100.00;98682.06;1224062;75;2930165;-64
2024/02/01 04:00:56;;;;;;;10.90;7.55;;;;;;;-3.98;100.00;98689.75;1223953;75;2925130;-65
2024/02/01 04:03:29;;;;;;;9.60;7.15;;;;;;;-4.17;100.00;98687.84;1224708;75;2927454;-66
2024/02/01 04:06:02;;;;;;;11.35;7.65;;;;;;;-4.12;100.00;98672.28;1224154;75;2923629;-66
2024/02/01 04:08:35;;;;;;;9.00;5.95;;;;;;;-4.08;100.00;98667.00;1223618;75;2928478;-64
2024/02/01 04:11:11;;;;;;;9.35;5.90;;;;;;;-4.00;100.00;98679.38;1224290;75;2922064;-63
2024/02/01 04:13:45;;;;;;;7.80;5.25;;;;;;;-4.08;100.00;98673.13;1223664;75;2958630;-65
2024/02/01 04:16:20;;;;;;;11.15;7.50;;;;;;;-4.15;100.00;98664.97;1224307;75;2919648;-64
2024/02/01 04:18:55;;;;;;;11.60;8.15;;;;;;;-4.17;100.00;98664.53;1223899;75;2928694;-67
2024/02/01 04:21:29;;;;;;;11.50;6.85;;;;;;;-4.05;100.00;98662.84;1223926;75;2923435;-65
2024/02/01 04:24:02;;;;;;;10.25;7.45;;;;;;;-4.18;100.00;98657.66;1223453;75;2919308;-66
2024/02/01 04:26:38;;;;;;;9.60;6.75;;;;;;;-4.10;100.00;98662.00;1224081;75;2928801;-68
2024/02/01 04:29:11;;;;;;;9.85;5.85;;;;;;;-4.17;100.00;98661.09;1224012;75;2935702;-67
2024/02/01 04:31:44;;;;;;;8.55;5.25;;;;;;;-4.12;100.00;98660.81;1223861;75;2925184;-66
2024/02/01 04:34:16;;;;;;;7.95;5.25;;;;;;;-4.15;100.00;98653.50;1223495;75;2925619;-65
2024/02/01 04:36:49;;;;;;;7.00;4.90;;;;;;;-4.19;100.00;98666.03;1224326;75;2928478;-64
2024/02/01 04:39:22;;;;;;;11.45;7.85;;;;;;;-4.19;100.00;98658.00;1222920;75;2930345;-65
2024/02/01 04:42:13;;;;;;;14.55;9.20;;;;;;;-4.15;100.00;98656.94;1223382;75;2928377;-64
2024/02/01 04:44:47;;;;;;;12.90;8.70;;;;;;;-4.04;100.00;98651.81;1223544;75;2932656;-66
2024/02/01 04:47:20;;;;;;;10.70;7.70;;;;;;;-3.99;100.00;98646.19;1224074;75;2924615;-64
2024/02/01 04:49:53;;;;;;;8.85;6.40;;;;;;;-4.03;100.00;98648.00;1223419;75;2921859;-64
2024/02/01 04:52:26;;;;;;;7.90;5.80;;;;;;;-4.10;100.00;98643.28;1223626;75;2927375;-64
2024/02/01 04:54:59;;;;;;;10.25;6.35;;;;;;;-4.16;100.00;98643.91;1224918;75;2933591;-62
2024/02/01 04:57:34;;;;;;;8.50;5.30;;;;;;;-4.14;100.00;98644.34;1223402;76;2921754;-62
2024/02/01 05:00:13;;;;;;;8.50;5.55;;;;;;;-4.14;100.00;98645.13;1223829;75;2921228;-66
2024/02/01 05:02:47;;;;;;;6.40;4.85;;;;;;;-4.11;100.00;98643.66;1223383;75;2926597;-65
2024/02/01 05:05:20;;;;;;;7.80;5.40;;;;;;;-4.21;100.00;98645.00;1223772;75;2910171;-64
2024/02/01 05:07:56;;;;;;;9.70;6.35;;;;;;;-4.26;100.00;98647.16;1223767;75;2929349;-67
2024/02/01 05:10:29;;;;;;;9.90;7.00;;;;;;;-4.23;100.00;98643.78;1224529;75;2922758;-66
2024/02/01 05:13:05;;;;;;;9.75;6.75;;;;;;;-4.12;100.00;98634.06;1223819;75;2923154;-64
2024/02/01 05:15:38;;;;;;;8.20;5.75;;;;;;;-4.07;100.00;98645.25;1224482;75;2920563;-64
2024/02/01 05:18:12;;;;;;;9.25;6.30;;;;;;;-4.14;100.00;98652.38;1223910;75;2925821;-67
2024/02/01 05:20:49;;;;;;;13.00;9.10;;;;;;;-4.17;100.00;98637.03;1223267;75;2928656;-66
2024/02/01 05:23:21;;;;;;;14.00;9.40;;;;;;;-4.09;100.00;98644.06;1223289;75;2925326;-65
2024/02/01 05:25:54;;;;;;;13.70;8.45;;;;;;;-4.04;100.00;98640.31;1224065;75;2927620;-65
2024/02/01 05:28:33;;;;;;;11.00;7.55;;;;;;;-4.09;100.00;98644.84;1223613;75;2925422;-65
2024/02/01 05:31:05;;;;;;;10.90;7.20;;;;;;;-4.05;100.00;98652.16;1223968;75;2929020;-67
2024/02/01 05:33:40;;;;;;;9.15;6.85;;;;;;;-3.94;100.00;98656.59;1224538;75;2919204;-66
2024/02/01 05:36:13;;;;;;;11.00;6.65;;;;;;;-3.94;100.00;98650.47;1222876;75;2927254;-65
2024/02/01 05:38:46;;;;;;;9.80;6.15;;;;;;;-3.98;100.00;98644.28;1223420;75;2929467;-63
2024/02/01 05:41:19;;;;;;;8.35;6.05;;;;;;;-4.02;100.00;98646.09;1224298;75;2922151;-64
2024/02/01 05:43:57;;;;;;;8.35;5.40;;;;;;;-3.99;100.00;98642.72;1222572;75;2950341;-63
2024/02/01 05:46:30;;;;;;;;;;;;;;;-4.12;100.00;98634.84;1224758;75;2931431;-64
2024/02/01 05:49:03;;;;;;;11.80;7.20;;;;;;;-3.94;100.00;98637.88;1223310;75;2929733;-66
2024/02/01 05:51:35;;;;;;;10.80;6.75;;;;;;;-3.95;100.00;98648.91;1223384;75;2930042;-65
2024/02/01 05:54:08;;;;;;;11.60;7.00;;;;;;;-3.98;100.00;98641.59;1223374;75;2926532;-65
2024/02/01 05:56:42;;;;;;;10.35;6.95;;;;;;;-3.95;100.00;98633.63;1223866;75;2922873;-66
2024/02/01 05:59:20;;;;;;;10.75;7.15;;;;;;;-3.90;100.00;98625.31;1223615;75;2925696;-64
2024/02/01 06:01:53;;;;;;;10.20;7.20;;;;;;;-4.12;100.00;98632.16;1223313;75;2932760;-64
2024/02/01 06:04:26;;;;;;;10.40;7.20;;;;;;;-4.03;100.00;98634.63;1222511;75;2924630;-66
2024/02/01 06:06:59;;;;;;;10.60;7.10;;;;;;;-4.19;100.00;98625.91;1222100;75;2974009;-64
2024/02/01 06:09:32;;;;;;;19.90;12.75;;;;;;;-4.09;100.00;98642.19;1223819;75;2923406;-65
2024/02/01 06:12:04;;;;;;;20.70;12.80;;;;;;;-4.09;100.00;98634.16;1223647;75;2924746;-65
2024/02/01 06:14:40;;;;;;;16.55;10.80;;;;;;;-3.92;100.00;98635.63;1224471;75;2929104;-64
2024/02/01 06:17:13;;;;;;;17.30;11.70;;;;;;;-4.03;100.00;98639.97;1223604;75;2925506;-66
2024/02/01 06:19:46;;;;;;;18.05;11.10;;;;;;;-4.01;100.00;98628.94;1223993;75;2924842;-67
2024/02/01 06:22:18;;;;;;;14.15;10.10;;;;;;;-3.85;100.00;98632.28;1222738;75;2921118;-65
2024/02/01 06:24:51;;;;;;;12.10;8.20;;;;;;;-3.80;100.00;98639.22;1223205;75;2929463;-67
2024/02/01 06:27:24;;;;;;;13.90;9.90;;;;;;;-3.87;100.00;98638.00;1223631;75;2928362;-61
2024/02/01 06:30:00;;;;;;;17.45;10.65;;;;;;;-3.73;100.00;98634.81;1223117;75;2920096;-67
2024/02/01 06:32:36;;;;;;;23.50;13.10;;;;;;;-3.83;100.00;98638.03;1220814;75;2937040;-65
2024/02/01 06:35:16;;;;;;;20.30;11.95;;;;;;;-3.66;100.00;98640.25;1224319;75;2930870;-65
2024/02/01 06:37:52;;;;;;;19.95;12.60;;;;;;;-3.76;100.00;98638.16;1224116;75;2920876;-64
2024/02/01 06:40:48;;;;;;;18.90;11.80;;;;;;;-3.73;100.00;98648.19;1223614;75;2934346;-64
2024/02/01 06:43:27;;;;;;;16.55;11.80;;;;;;;-3.68;100.00;98666.63;1223560;75;2923320;-65
2024/02/01 06:46:09;;;;;;;16.10;11.30;;;;;;;-3.58;100.00;98657.22;1223648;75;2931707;-65
2024/02/01 06:48:50;;;;;;;15.60;10.75;;;;;;;-3.36;100.00;98638.84;1224074;75;2926363;-63
2024/02/01 06:51:32;;;;;;;13.85;9.40;;;;;;;-3.24;100.00;98647.44;1223738;75;2923880;-64
2024/02/01 06:54:26;;;;;;;13.35;8.00;;;;;;;-3.26;100.00;98644.34;1223293;75;2938464;-65
2024/02/01 06:57:03;;;;;;;12.25;7.70;;;;;;;-3.10;100.00;98635.41;1224408;75;2933235;-65
2024/02/01 06:59:54;;;;;;;18.25;11.85;;;;;;;-3.34;100.00;98644.59;1221115;75;2934239;-66
2024/02/01 07:02:35;;;;;;;13.75;9.95;;;;;;;-3.04;100.00;98634.72;1222935;75;2925918;-64
2024/02/01 07:05:21;;;;;;;16.65;9.35;;;;;;;-3.01;100.00;98635.91;1223497;75;2931262;-64
2024/02/01 07:07:51;;;;;;;15.50;10.55;;;;;;;-3.05;100.00;98643.16;1223960;75;2935181;-65
2024/02/01 07:10:32;;;;;;;14.80;10.30;;;;;;;-2.50;100.00;98637.38;1223897;75;2920306;-64
2024/02/01 07:13:06;;;;;;;12.65;9.35;;;;;;;-1.81;100.00;98612.84;1223947;75;2929217;-67
2024/02/01 07:15:43;;;;;;;11.70;8.20;;;;;;;-0.65;100.00;98619.47;1223703;75;2924255;-65
2024/02/01 07:18:19;;;;;;;12.90;8.85;;;;;;;0.79;100.00;98612.44;1223108;75;2933207;-64
2024/02/01 07:20:56;;;;;;;11.60;7.50;;;;;;;1.30;95.46;98623.16;1223274;75;2925376;-64
2024/02/01 07:23:37;;;;;;;10.65;7.35;;;;;;;2.81;86.03;98618.47;1223717;75;2919833;-63
2024/02/01 07:26:35;;;;;;;11.10;7.00;;;;;;;1.54;85.27;98608.84;1224437;75;2925740;-67
2024/02/01 07:59:38;;;;;;;17.40;9.75;;;;;;;3.88;69.50;98618.50;1223622;75;2934098;-63
2024/02/01 08:02:24;;;;;;;13.40;8.10;;;;;;;5.84;66.93;98605.53;1224015;67;2923816;-62
2024/02/01 08:07:54;;;;;;;11.15;7.50;;;;;;;5.83;66.11;98601.28;1224815;75;2923511;-62
2024/02/01 08:10:26;;;;;;;14.85;9.85;;;;;;;5.40;68.08;98602.91;1224798;75;2915621;-66
2024/02/01 08:13:05;;;;;;;14.45;9.60;;;;;;;5.68;67.42;98601.59;1224243;75;2929057;-64
2024/02/01 08:15:41;;;;;;;15.10;10.60;;;;;;;4.98;68.94;98607.16;1224374;75;2950466;-63
2024/02/01 08:18:14;;;;;;;12.80;9.40;;;;;;;5.40;68.74;98607.56;1223953;75;2924562;-64
2024/02/01 08:20:47;;;;;;;13.50;9.95;;;;;;;4.19;72.59;98603.00;1224404;75;2919748;-66
2024/02/01 08:23:24;;;;;;;14.65;9.75;;;;;;;3.32;76.73;98589.78;1225142;75;2917795;-64
2024/02/01 08:26:02;;;;;;;13.60;8.70;;;;;;;3.50;77.22;98591.50;1224089;75;2929457;-64
2024/02/01 08:28:35;;;;;;;;;;;;;;;3.11;78.68;98590.75;1225421;75;2922327;-64
2024/02/01 08:31:14;;;;;;;15.60;10.10;;;;;;;2.68;84.54;98593.84;1225197;75;2927305;-65
2024/02/01 08:33:46;;;;;;;;;;;;;;;3.37;79.05;98593.97;1226029;75;2924183;-69
2024/02/01 08:36:20;;;;;;;11.70;7.90;;;;;;;3.73;79.37;98591.59;1225346;75;2916868;-64
2024/02/01 08:38:55;;;;;;;13.40;9.20;;;;;;;3.46;80.51;98596.94;1224611;75;2920189;-64
2024/02/01 08:41:35;;;;;;;15.70;9.80;;;;;;;3.06;81.94;98593.16;1224884;75;2915711;-65
2024/02/01 08:44:11;;;;;;;11.40;8.75;;;;;;;3.62;79.97;98578.19;1225309;75;2919860;-65
2024/02/01 08:46:43;;;;;;;20.40;11.75;;;;;;;2.83;84.73;98577.50;1223673;75;2922635;-63
2024/02/01 08:49:16;;;;;;;14.85;9.90;;;;;;;3.67;82.24;98593.22;1224612;75;2929595;-64
2024/02/01 08:51:49;;;;;;;11.45;8.40;;;;;;;3.78;81.02;98591.16;1224526;75;2920597;-65
2024/02/01 08:54:26;;;;;;;12.80;8.10;;;;;;;3.50;82.09;98588.78;1223804;75;2932049;-64
2024/02/01 08:56:58;;;;;;;13.50;8.95;;;;;;;3.05;83.21;98586.19;1224076;75;2933081;-64
2024/02/01 08:59:31;;;;;;;11.30;8.50;;;;;;;3.54;81.87;98586.81;1223665;75;2923299;-63
2024/02/01 09:02:13;;;;;;;15.40;8.20;;;;;;;3.09;81.27;98584.97;1223631;75;2924879;-64
2024/02/01 09:04:46;;;;;;;12.30;8.55;;;;;;;3.25;85.21;98583.66;1223689;75;2917825;-64
2024/02/01 09:07:19;;;;;;;11.40;7.85;;;;;;;3.35;84.73;98588.97;1224329;75;2926352;-64
2024/02/01 09:09:55;;;;;;;11.00;8.30;;;;;;;3.05;85.04;98578.06;1223423;75;2928216;-66
2024/02/01 09:12:28;;;;;;;12.60;7.75;;;;;;;3.15;85.55;98586.09;1223716;75;2918374;-65
2024/02/01 09:15:00;;;;;;;13.55;8.25;;;;;;;3.41;85.50;98581.91;1223483;75;2920787;-63
2024/02/01 09:17:35;;;;;;;11.30;7.80;;;;;;;3.61;85.69;98584.03;1222397;75;2922057;-65
2024/02/01 09:20:17;;;;;;;10.50;7.55;;;;;;;3.55;86.87;98575.56;1223462;75;2920335;-65
2024/02/01 09:22:55;;;;;;;12.65;8.00;;;;;;;3.25;87.62;98578.22;1223763;75;2928233;-64
2024/02/01 09:25:30;;;;;;;12.00;8.70;;;;;;;3.04;89.29;98566.47;1224177;75;2940185;-65
2024/02/01 09:28:11;;;;;;;17.80;11.00;;;;;;;2.83;93.90;98572.88;1222731;75;2924711;-64
2024/02/01 09:30:46;;;;;;;15.00;10.70;;;;;;;3.01;90.76;98570.00;1223299;75;2943241;-65
2024/02/01 09:33:23;;;;;;;15.50;10.45;;;;;;;3.22;90.48;98579.03;1223236;75;2919197;-64
2024/02/01 09:35:56;;;;;;;14.40;10.05;;;;;;;3.51;88.66;98580.28;1223569;75;2926540;-64
2024/02/01 09:38:32;;;;;;;13.00;9.15;;;;;;;3.67;87.13;98581.63;1223498;75;2924896;-64
2024/02/01 09:41:15;;;;;;;17.10;11.70;;;;;;;3.93;89.14;98582.84;1222379;75;2929760;-66
2024/02/01 09:43:53;;;;;;;12.60;9.15;;;;;;;4.38;83.88;98579.88;1223231;75;2929212;-65
2024/02/01 09:46:27;;;;;;;15.30;10.00;;;;;;;5.02;80.14;98586.91;1223653;75;2922016;-63
2024/02/01 09:49:02;;;;;;;18.60;12.70;;;;;;;5.11;78.75;98583.69;1224178;75;2935114;-63
2024/02/01 09:51:34;;;;;;;24.35;13.40;;;;;;;4.88;79.16;98596.09;1222941;75;2926088;-63
2024/02/01 09:54:11;;;;;;;27.50;15.10;;;;;;;4.53;79.37;98604.81;1223159;75;2922360;-67
2024/02/01 09:56:47;;;;;;;27.00;15.95;;;;;;;4.52;79.59;98595.13;1222635;75;2933967;-65
2024/02/01 09:59:22;;;;;;;19.60;13.50;;;;;;;5.50;77.00;98588.34;1223014;75;2885378;-63
2024/02/01 10:01:55;;;;;;;23.20;15.75;;;;;;;5.84;77.09;98583.78;1223334;75;2926579;-66
2024/02/01 10:04:28;;;;;;;24.10;15.15;;;;;;;6.92;73.79;98579.38;1223604;75;2921000;-64
2024/02/01 10:07:01;;;;;;;25.40;16.05;;;;;;;6.73;71.26;98581.78;1223184;75;2922771;-64
2024/02/01 10:09:34;;;;;;;27.30;18.00;;;;;;;6.69;72.68;98575.66;1222697;75;2917632;-65
2024/02/01 10:12:11;;;;;;;26.50;15.70;;;;;;;7.44;70.86;98579.16;1223807;75;2917762;-64
2024/02/01 10:14:44;;;;;;;22.75;15.10;;;;;;;7.52;68.98;98560.63;1223327;75;2926269;-64
2024/02/01 10:17:17;;;;;;;31.45;18.50;;;;;;;6.56;71.20;98567.41;1223123;75;2924265;-63
2024/02/01 10:19:52;;;;;;;29.60;19.10;;;;;;;7.01;71.53;98557.75;1223842;75;2924782;-64
2024/02/01 10:22:32;;;;;;;25.45;16.80;;;;;;;8.00;67.96;98553.38;1223100;67;2926759;-64
2024/02/01 10:25:05;;;;;;;28.45;17.60;;;;;;;8.35;66.02;98555.47;1223453;75;2923228;-66
2024/02/01 10:27:40;;;;;;;35.70;19.55;;;;;;;8.24;66.50;98548.38;1224165;75;2918166;-66
2024/02/01 10:30:16;;;;;;;31.15;18.65;;;;;;;9.16;63.67;98545.75;1222899;75;2929448;-64
2024/02/01 10:32:52;;;;;;;36.90;19.80;;;;;;;8.80;64.89;98530.59;1223806;75;2923607;-65
2024/02/01 10:35:27;;;;;;;37.10;20.20;;;;;;;8.79;64.49;98537.25;1223475;75;2921547;-64
2024/02/01 10:37:59;;;;;;;33.60;17.75;;;;;;;8.26;64.44;98526.88;1223346;75;2924160;-65
2024/02/01 10:40:40;;;;;;;28.45;17.95;;;;;;;8.44;65.66;98518.16;1223054;75;2924767;-64
2024/02/01 10:43:20;;;;;;;33.95;17.50;;;;;;;7.79;67.22;98522.09;1221825;75;3028533;-63
2024/02/01 10:46:08;;;;;;;36.45;18.50;;;;;;;7.62;67.93;98528.81;1223289;75;2920830;-64
2024/02/01 10:48:49;;;;;;;24.65;14.90;;;;;;;8.73;65.69;98526.16;1224381;75;2922772;-64
2024/02/01 10:51:23;;;;;;;20.60;13.15;;;;;;;8.80;64.99;98524.38;1223114;75;2920117;-62
2024/02/01 10:53:57;;;;;;;44.55;18.80;;;;;;;7.54;69.87;98511.16;1223666;75;2921045;-64
2024/02/01 10:56:30;;;;;;;33.25;18.55;;;;;;;7.79;69.34;98521.31;1223471;75;2920417;-64
2024/02/01 10:59:07;;;;;;;29.50;16.10;;;;;;;8.15;68.14;98526.44;1222822;75;2927891;-64
2024/02/01 11:01:41;;;;;;;21.45;14.00;;;;;;;8.96;66.09;98522.25;1223513;75;2925947;-64
2024/02/01 11:04:16;;;;;;;22.10;13.65;;;;;;;8.86;65.52;98512.44;1222843;75;2926443;-66
2024/02/01 11:06:53;;;;;;;19.25;12.80;;;;;;;8.72;65.62;98505.50;1223915;75;2922538;-65
2024/02/01 11:09:26;;;;;;;25.90;16.60;;;;;;;7.60;69.04;98499.31;1223166;67;2932002;-65
2024/02/01 11:12:00;;;;;;;29.40;18.30;;;;;;;7.14;71.04;98493.19;1223790;75;2925768;-64
2024/02/01 11:14:35;;;;;;;23.70;14.85;;;;;;;7.69;69.62;98504.84;1222991;75;2925785;-65
2024/02/01 11:17:09;;;;;;;22.75;14.20;;;;;;;7.37;70.35;98503.06;1223666;75;2930164;-66
2024/02/01 11:19:45;;;;;;;17.00;12.75;;;;;;;7.65;69.47;98515.09;1222839;75;2931841;-63
2024/02/01 11:22:20;;;;;;;26.90;16.10;;;;;;;7.02;72.22;98499.38;1222995;75;2923469;-64
2024/02/01 11:25:04;;;;;;;23.35;13.60;;;;;;;7.60;70.25;98506.69;1223628;75;2932204;-66
2024/02/01 11:27:38;;;;;;;18.25;11.15;;;;;;;7.78;69.37;98508.91;1223402;67;2922260;-64
2024/02/01 11:30:28;;;;;;;24.80;14.15;;;;;;;6.77;72.60;98505.50;1224181;75;2926787;-64
2024/02/01 11:33:02;;;;;;;31.75;17.15;;;;;;;6.27;74.74;98506.75;1224524;75;2922489;-66
2024/02/01 11:35:40;;;;;;;25.60;16.20;;;;;;;6.30;75.46;98514.84;1223957;75;2925835;-63
2024/02/01 11:38:14;;;;;;;23.05;14.80;;;;;;;6.47;75.91;98514.81;1224094;75;2925658;-65
2024/02/01 11:40:47;;;;;;;23.95;14.20;;;;;;;6.65;74.85;98511.66;1224204;75;2929358;-65
2024/02/01 11:43:19;;;;;;;25.70;16.05;;;;;;;6.11;74.68;98508.28;1224277;75;2924497;-64
2024/02/01 11:45:58;;;;;;;19.90;13.90;;;;;;;6.89;73.50;98509.47;1223346;75;2923177;-66
2024/02/01 11:48:31;;;;;;;24.30;15.40;;;;;;;6.18;73.99;98493.75;1223528;75;2927248;-66
2024/02/01 11:51:04;;;;;;;19.65;13.70;;;;;;;6.25;74.55;98490.09;1222714;75;2929126;-65
2024/02/01 11:53:37;;;;;;;23.45;13.85;;;;;;;6.14;74.99;98496.56;1222907;75;2926007;-64
2024/02/01 11:56:10;;;;;;;24.35;14.30;;;;;;;6.25;76.62;98485.41;1223442;75;2920965;-64
2024/02/01 11:58:46;;;;;;;31.85;16.50;;;;;;;6.05;78.94;98477.34;1222533;75;2928136;-66
2024/02/01 12:01:23;;;;;;;28.40;16.90;;;;;;;6.00;81.36;98467.00;1223507;75;2924679;-64
2024/02/01 12:03:57;;;;;;;34.30;19.00;;;;;;;5.86;83.64;98454.47;1222777;75;2922903;-65
2024/02/01 12:06:30;;;;;;;26.20;16.20;;;;;;;6.25;82.47;98455.50;1224262;75;2921705;-64
2024/02/01 12:09:07;;;;;;;23.40;16.30;;;;;;;6.18;83.07;98444.81;1224364;67;2926505;-66
2024/02/01 12:11:40;;;;;;;23.25;15.30;;;;;;;6.13;82.53;98454.25;1223568;75;2940992;-66
2024/02/01 12:14:21;;;;;;;22.65;15.40;;;;;;;6.57;81.72;98443.06;1215934;75;3210646;-67